Campbeltown, United Kingdom
Current Conditions -  °F | °C
As of 8:20 PM on Sunday 25 Jan 2015 (Local Time) from EGPI Reporting Station
Broken Clouds Broken Clouds  
Wind Chill: 40°   Ceiling: 3000
Heat Index: 46°   Visibility: 6mi
Dew Point: 46°   Wind: 15mph
Humidity: 100%   Direction: 250°WSW
Pressure: 30"   Gusts: NA
Location:  55.43°N, 5.61°W
Report Text: EGPI 252020Z AUTO 25013KT 9999 FEW018/// BKN030/// 08/08 Q1016 RERA
Loading
Personal Weather Stations






























Interactive Weather Map New forecast layout! Learn more

10-Day Weather Forecast

Advertisements
Track Severe Weather on mobile